Time;durP1;ratioP1;P1;durP2;ratioP2;P2;SDS_P1;SDS_P2;PMS_P1;PMS_P2;Temp;Humidity;BMP_temperature;BMP_pressure;BME280_temperature;BME280_humidity;BME280_pressure;Samples;Min_cycle;Max_cycle;Signal;HPM_P1;HPM_P2
2023/07/23 00:00:47;;;;;;;19.00;9.25;;;14.00;99.90;;;;;;5138431;27;20042;-62
2023/07/23 00:03:17;;;;;;;20.30;9.77;;;14.00;99.90;;;;;;5118812;27;20073;-61
2023/07/23 00:05:44;;;;;;;17.80;9.20;;;14.10;99.90;;;;;;5138297;27;20527;-61
2023/07/23 00:08:10;;;;;;;19.23;9.43;;;14.00;99.90;;;;;;5136966;27;20039;-62
2023/07/23 00:10:36;;;;;;;19.67;9.75;;;14.10;99.90;;;;;;5137782;27;20913;-61
2023/07/23 00:13:01;;;;;;;19.13;9.18;;;14.10;99.90;;;;;;5119946;27;20614;-61
2023/07/23 00:15:27;;;;;;;17.83;9.23;;;13.90;99.90;;;;;;5120720;27;20030;-61
2023/07/23 00:17:53;;;;;;;16.95;8.88;;;14.10;99.90;;;;;;5137997;27;20069;-61
2023/07/23 00:20:19;;;;;;;15.65;9.32;;;13.90;99.90;;;;;;5136177;27;20042;-62
2023/07/23 00:22:44;;;;;;;16.33;8.93;;;14.00;99.90;;;;;;5139561;27;20502;-62
2023/07/23 00:25:10;;;;;;;17.17;8.45;;;14.10;99.90;;;;;;5138198;27;20058;-61
2023/07/23 00:27:36;;;;;;;14.13;7.72;;;14.10;99.90;;;;;;5138323;27;20384;-62
2023/07/23 00:30:03;;;;;;;15.70;8.05;;;13.80;99.90;;;;;;5138412;27;20395;-61
2023/07/23 00:32:29;;;;;;;14.07;8.00;;;13.90;99.90;;;;;;5139295;27;20443;-61
2023/07/23 00:34:55;;;;;;;17.00;8.77;;;13.90;99.90;;;;;;5138327;27;20034;-61
2023/07/23 00:37:20;;;;;;;14.32;7.85;;;13.90;99.90;;;;;;5138485;27;20076;-62
2023/07/23 00:39:46;;;;;;;16.73;8.27;;;14.10;99.90;;;;;;5137696;27;20597;-62
2023/07/23 00:42:12;;;;;;;15.40;8.45;;;14.00;99.90;;;;;;5140250;27;20034;-62
2023/07/23 00:44:37;;;;;;;18.85;8.90;;;14.00;99.90;;;;;;5138551;27;20533;-62
2023/07/23 00:47:03;;;;;;;18.52;8.68;;;13.90;99.90;;;;;;5140491;27;20686;-62
2023/07/23 00:49:30;;;;;;;14.40;8.88;;;14.10;99.90;;;;;;5120401;27;20047;-62
2023/07/23 00:51:56;;;;;;;14.45;9.35;;;13.90;99.90;;;;;;5107879;27;20062;-62
2023/07/23 00:54:23;;;;;;;15.85;8.82;;;13.90;99.90;;;;;;5138185;27;20495;-62
2023/07/23 00:56:49;;;;;;;20.17;9.10;;;14.10;99.90;;;;;;5138746;27;20043;-63
2023/07/23 00:59:15;;;;;;;18.00;9.15;;;13.90;99.90;;;;;;5118468;27;20107;-62
2023/07/23 01:01:41;;;;;;;15.10;8.82;;;13.90;99.90;;;;;;5138010;27;20035;-62
2023/07/23 01:04:07;;;;;;;18.77;9.95;;;13.80;99.90;;;;;;5132376;27;20419;-62
2023/07/23 01:06:36;;;;;;;17.63;9.57;;;13.90;99.90;;;;;;5116110;27;20058;-63
2023/07/23 01:09:03;;;;;;;19.10;10.10;;;14.00;99.90;;;;;;5134767;27;20038;-63
2023/07/23 01:11:32;;;;;;;15.98;9.80;;;13.80;99.90;;;;;;5133486;27;20126;-63
2023/07/23 01:13:59;;;;;;;17.42;10.20;;;14.60;99.90;;;;;;5132197;27;20496;-63
2023/07/23 01:16:25;;;;;;;21.20;9.90;;;13.90;99.90;;;;;;5135497;27;20394;-63
2023/07/23 01:18:51;;;;;;;19.83;10.07;;;14.00;99.90;;;;;;5134055;27;20515;-63
2023/07/23 01:21:17;;;;;;;20.73;10.10;;;13.80;99.90;;;;;;5134251;27;20141;-62
2023/07/23 01:23:43;;;;;;;18.73;10.73;;;13.90;99.90;;;;;;5134528;27;20843;-62
2023/07/23 01:26:09;;;;;;;18.70;10.55;;;13.90;99.90;;;;;;5133168;27;20053;-61
2023/07/23 01:28:35;;;;;;;16.80;9.52;;;14.10;99.90;;;;;;5134182;27;20455;-62
2023/07/23 01:31:01;;;;;;;14.00;9.70;;;14.00;99.90;;;;;;5114619;27;20047;-62
2023/07/23 01:33:27;;;;;;;15.35;10.20;;;14.00;99.90;;;;;;5134044;27;20035;-62
2023/07/23 01:35:58;;;;;;;16.55;10.07;;;13.90;99.90;;;;;;5116323;27;20046;-61
2023/07/23 01:38:24;;;;;;;13.95;8.68;;;14.20;99.90;;;;;;5133256;27;20048;-62
2023/07/23 01:40:50;;;;;;;17.13;8.82;;;13.90;99.90;;;;;;5134997;27;20194;-62
2023/07/23 01:43:17;;;;;;;16.10;9.75;;;13.80;99.90;;;;;;5134151;27;20596;-62
2023/07/23 01:45:46;;;;;;;16.77;8.60;;;14.10;99.90;;;;;;5134613;27;20039;-61
2023/07/23 01:48:13;;;;;;;12.85;8.25;;;13.80;99.90;;;;;;5134271;27;20039;-62
2023/07/23 01:50:39;;;;;;;15.27;8.23;;;14.00;99.90;;;;;;5133175;27;20055;-62
2023/07/23 01:53:06;;;;;;;16.05;8.85;;;13.90;99.90;;;;;;5135417;27;20054;-62
2023/07/23 01:55:33;;;;;;;17.33;8.80;;;14.00;99.90;;;;;;5116824;27;20037;-62
2023/07/23 01:57:58;;;;;;;16.67;8.18;;;13.80;99.90;;;;;;5133369;27;20078;-62
2023/07/23 02:00:24;;;;;;;16.23;8.75;;;13.90;99.90;;;;;;5134397;27;20084;-62
2023/07/23 02:02:50;;;;;;;17.20;8.52;;;13.90;99.90;;;;;;5134127;27;20113;-62
2023/07/23 02:05:17;;;;;;;13.18;7.20;;;14.10;99.90;;;;;;5133952;27;20030;-61
2023/07/23 02:07:43;;;;;;;13.90;7.72;;;13.90;99.90;;;;;;5133316;27;20045;-62
2023/07/23 02:10:13;;;;;;;14.27;8.63;;;14.00;99.90;;;;;;5133433;27;20038;-61
2023/07/23 02:12:39;;;;;;;13.57;8.35;;;14.00;99.90;;;;;;5133094;27;20039;-61
2023/07/23 02:15:05;;;;;;;15.60;8.00;;;14.10;99.90;;;;;;5131982;27;20407;-61
2023/07/23 02:17:31;;;;;;;19.92;8.13;;;14.00;99.90;;;;;;5135273;27;20061;-61
2023/07/23 02:19:57;;;;;;;14.75;7.78;;;14.00;99.90;;;;;;5133777;27;20039;-60
2023/07/23 02:22:22;;;;;;;14.38;8.23;;;14.00;99.90;;;;;;5131553;27;20514;-61
2023/07/23 02:24:48;;;;;;;14.77;8.07;;;14.00;99.90;;;;;;5113803;27;20618;-60
2023/07/23 02:27:15;;;;;;;15.55;7.88;;;14.00;99.90;;;;;;5113896;27;20061;-61
2023/07/23 02:29:41;;;;;;;15.15;7.47;;;14.00;99.90;;;;;;5133021;27;20039;-60
2023/07/23 02:32:10;;;;;;;12.90;6.88;;;14.00;99.90;;;;;;5131493;27;20126;-61
2023/07/23 02:34:36;;;;;;;14.32;7.25;;;13.90;99.90;;;;;;5131434;27;20038;-61
2023/07/23 02:37:02;;;;;;;13.55;7.57;;;13.90;99.90;;;;;;5132793;27;20126;-61
2023/07/23 02:39:28;;;;;;;11.02;6.93;;;13.90;99.90;;;;;;5133052;27;20042;-61
2023/07/23 02:41:53;;;;;;;16.35;7.90;;;14.10;99.90;;;;;;5132036;27;20130;-62
2023/07/23 02:44:19;;;;;;;11.20;7.15;;;14.00;99.90;;;;;;5132412;27;20034;-62
2023/07/23 02:46:45;;;;;;;13.68;7.93;;;13.90;99.90;;;;;;5133106;27;20178;-62
2023/07/23 02:49:11;;;;;;;15.55;7.97;;;14.00;99.90;;;;;;5134043;27;20314;-62
2023/07/23 02:51:36;;;;;;;16.45;8.00;;;13.90;99.90;;;;;;5130712;27;20376;-63
2023/07/23 02:54:03;;;;;;;11.70;7.15;;;13.80;99.90;;;;;;5130748;27;20118;-63
2023/07/23 02:56:29;;;;;;;15.70;8.18;;;14.00;99.90;;;;;;5132873;27;20421;-62
2023/07/23 02:58:54;;;;;;;11.45;7.40;;;14.10;99.90;;;;;;5134711;27;20058;-62
2023/07/23 03:01:20;;;;;;;14.00;7.70;;;14.20;99.90;;;;;;5132637;27;20031;-63
2023/07/23 03:03:47;;;;;;;16.70;8.57;;;14.10;99.90;;;;;;5114075;27;20486;-63
2023/07/23 03:06:14;;;;;;;12.70;7.90;;;14.00;99.90;;;;;;5133063;27;20323;-63
2023/07/23 03:08:40;;;;;;;12.30;7.63;;;14.00;99.90;;;;;;5133972;27;20050;-63
2023/07/23 03:11:06;;;;;;;12.13;7.38;;;14.00;99.90;;;;;;5133406;27;20042;-63
2023/07/23 03:13:32;;;;;;;12.52;7.15;;;14.10;99.90;;;;;;5111258;27;20088;-62
2023/07/23 03:15:58;;;;;;;13.70;7.50;;;14.00;99.90;;;;;;5133136;27;20130;-62
2023/07/23 03:18:24;;;;;;;14.95;8.02;;;14.10;99.90;;;;;;5115585;27;20320;-62
2023/07/23 03:20:49;;;;;;;12.60;7.28;;;14.10;99.90;;;;;;5107744;27;20483;-62
2023/07/23 03:23:16;;;;;;;16.50;7.63;;;14.00;99.90;;;;;;5133972;27;20043;-62
2023/07/23 03:25:41;;;;;;;14.35;8.23;;;13.90;99.90;;;;;;5131494;27;20043;-62
2023/07/23 03:28:07;;;;;;;10.65;6.93;;;14.10;99.90;;;;;;5130620;27;20115;-62
2023/07/23 03:30:33;;;;;;;11.85;7.85;;;14.00;99.90;;;;;;5130868;27;20127;-63
2023/07/23 03:32:59;;;;;;;13.95;7.88;;;14.00;99.90;;;;;;5133009;27;20070;-61
2023/07/23 03:35:25;;;;;;;13.23;7.93;;;14.10;99.90;;;;;;5112078;27;20074;-61
2023/07/23 03:37:51;;;;;;;12.00;7.40;;;14.00;99.90;;;;;;5132199;27;20085;-61
2023/07/23 03:40:17;;;;;;;14.52;7.32;;;14.10;99.90;;;;;;5130504;27;20527;-61
2023/07/23 03:42:43;;;;;;;16.73;7.90;;;13.90;99.90;;;;;;5132339;27;20043;-61
2023/07/23 03:45:09;;;;;;;12.50;7.82;;;13.90;99.90;;;;;;5131688;27;20379;-61
2023/07/23 03:47:35;;;;;;;12.77;8.35;;;14.00;99.90;;;;;;5131936;27;20039;-61
2023/07/23 03:50:01;;;;;;;14.98;8.45;;;14.00;99.90;;;;;;5131386;27;20386;-61
2023/07/23 03:52:26;;;;;;;14.60;7.82;;;13.90;99.90;;;;;;5130970;27;20035;-61
2023/07/23 03:54:52;;;;;;;18.85;9.40;;;13.90;99.90;;;;;;5131892;27;20051;-61
2023/07/23 03:57:18;;;;;;;17.08;9.07;;;13.90;99.90;;;;;;5133611;27;20437;-61
2023/07/23 03:59:45;;;;;;;15.63;9.57;;;13.80;99.90;;;;;;5129924;27;20035;-60
2023/07/23 04:02:11;;;;;;;17.67;9.90;;;13.80;99.90;;;;;;5131490;27;20039;-61
2023/07/23 04:04:38;;;;;;;15.32;9.15;;;13.90;99.90;;;;;;5111672;27;20038;-61
2023/07/23 04:07:05;;;;;;;14.23;9.25;;;13.90;99.90;;;;;;5130962;27;20038;-61
2023/07/23 04:09:31;;;;;;;13.48;8.65;;;13.90;99.90;;;;;;5131238;27;20042;-61
2023/07/23 04:11:57;;;;;;;17.15;8.57;;;13.80;99.90;;;;;;5132001;27;20046;-61
2023/07/23 04:14:23;;;;;;;15.15;9.45;;;14.00;99.90;;;;;;5131079;27;20050;-61
2023/07/23 04:16:49;;;;;;;16.45;10.30;;;13.90;99.90;;;;;;5131217;27;20054;-61
2023/07/23 04:19:15;;;;;;;14.77;9.40;;;14.00;99.90;;;;;;5132905;27;20099;-61
2023/07/23 04:21:40;;;;;;;15.15;9.07;;;13.90;99.90;;;;;;5134119;27;20041;-60
2023/07/23 04:24:06;;;;;;;14.18;9.05;;;13.80;99.90;;;;;;5132417;27;20576;-61
2023/07/23 04:26:32;;;;;;;14.93;8.32;;;13.90;99.90;;;;;;5130479;27;20138;-61
2023/07/23 04:28:58;;;;;;;17.35;8.90;;;13.90;99.90;;;;;;5132485;27;20035;-61
2023/07/23 04:31:24;;;;;;;14.40;9.30;;;14.00;99.90;;;;;;5132073;27;20103;-61
2023/07/23 04:33:50;;;;;;;16.08;9.68;;;13.90;99.90;;;;;;5131456;27;20046;-61
2023/07/23 04:36:17;;;;;;;15.82;9.63;;;14.00;99.90;;;;;;5131136;27;20099;-60
2023/07/23 04:38:43;;;;;;;16.90;9.18;;;14.00;99.90;;;;;;5114318;27;20071;-61
2023/07/23 04:41:09;;;;;;;13.88;9.07;;;14.10;99.90;;;;;;5136095;27;20047;-61
2023/07/23 04:43:36;;;;;;;15.82;10.05;;;14.00;99.90;;;;;;5135116;27;20148;-61
2023/07/23 04:46:05;;;;;;;15.40;9.68;;;14.10;99.90;;;;;;5115496;27;20187;-61
2023/07/23 04:48:35;;;;;;;18.90;8.95;;;14.10;99.90;;;;;;5134759;27;20054;-61
2023/07/23 04:51:04;;;;;;;16.98;9.65;;;14.00;99.90;;;;;;5133717;27;20260;-61
2023/07/23 04:53:29;;;;;;;17.00;9.30;;;14.00;99.90;;;;;;5134297;27;20406;-60
2023/07/23 04:55:57;;;;;;;14.95;9.20;;;14.10;99.90;;;;;;5114983;27;20058;-61
2023/07/23 04:58:24;;;;;;;18.80;10.10;;;14.00;99.90;;;;;;5110245;27;20099;-60
2023/07/23 05:00:50;;;;;;;16.63;9.02;;;14.00;99.90;;;;;;5133773;27;20070;-60
2023/07/23 05:03:16;;;;;;;17.20;10.00;;;14.00;99.90;;;;;;5135494;27;20071;-61
2023/07/23 05:05:44;;;;;;;16.52;9.35;;;14.00;99.90;;;;;;5133340;27;20600;-61
2023/07/23 05:08:10;;;;;;;22.00;9.40;;;14.30;99.90;;;;;;5132858;27;20507;-60
2023/07/23 05:10:36;;;;;;;16.85;8.98;;;13.90;99.90;;;;;;5134083;27;20088;-60
2023/07/23 05:13:03;;;;;;;13.25;8.55;;;14.10;99.90;;;;;;5116576;27;20050;-61
2023/07/23 05:15:29;;;;;;;14.90;8.88;;;14.00;99.90;;;;;;5134215;27;20488;-61
2023/07/23 05:17:54;;;;;;;15.13;8.90;;;13.90;99.90;;;;;;5134695;27;20050;-61
2023/07/23 05:20:20;;;;;;;15.45;8.68;;;13.90;99.90;;;;;;5133846;27;20050;-61
2023/07/23 05:22:46;;;;;;;12.85;8.85;;;13.90;99.90;;;;;;5134868;27;20164;-61
2023/07/23 05:25:12;;;;;;;14.43;8.90;;;14.10;99.90;;;;;;5115269;27;20121;-61
2023/07/23 05:27:39;;;;;;;14.73;9.40;;;14.00;99.90;;;;;;5134342;27;20035;-61
2023/07/23 05:30:05;;;;;;;14.23;9.15;;;14.20;99.90;;;;;;5133819;27;20058;-60
2023/07/23 05:32:31;;;;;;;13.00;9.05;;;14.30;99.90;;;;;;5114696;27;20131;-61
2023/07/23 05:34:57;;;;;;;12.95;9.10;;;14.20;99.90;;;;;;5134043;27;20062;-61
2023/07/23 05:37:26;;;;;;;14.75;9.75;;;14.20;99.90;;;;;;5133630;27;20491;-61
2023/07/23 05:39:53;;;;;;;21.42;10.60;;;14.00;99.90;;;;;;5133194;27;20035;-61
2023/07/23 05:42:19;;;;;;;16.88;10.48;;;14.10;99.90;;;;;;5099010;27;20039;-61
2023/07/23 05:44:45;;;;;;;14.82;9.95;;;14.10;99.90;;;;;;5134334;27;20042;-60
2023/07/23 05:47:11;;;;;;;16.88;10.18;;;14.00;99.90;;;;;;5135657;27;20513;-61
2023/07/23 05:49:37;;;;;;;18.33;10.70;;;14.10;99.90;;;;;;5098983;27;20045;-61
2023/07/23 05:52:03;;;;;;;19.10;11.07;;;14.20;99.90;;;;;;5133008;27;20046;-61
2023/07/23 05:54:29;;;;;;;19.85;11.40;;;14.30;99.90;;;;;;5134008;27;20099;-61
2023/07/23 05:56:55;;;;;;;16.90;10.40;;;14.30;99.90;;;;;;5114113;27;20046;-60
2023/07/23 05:59:20;;;;;;;16.63;10.65;;;14.30;99.90;;;;;;5131010;27;20046;-60
2023/07/23 06:01:46;;;;;;;16.27;10.85;;;14.40;99.90;;;;;;5132394;27;20039;-61
2023/07/23 06:04:13;;;;;;;15.98;10.93;;;14.20;99.90;;;;;;5131015;27;20053;-61
2023/07/23 06:06:38;;;;;;;15.82;10.30;;;14.30;99.90;;;;;;5133443;27;20380;-61
2023/07/23 06:09:04;;;;;;;14.93;10.00;;;14.30;99.90;;;;;;5131846;27;20054;-61
2023/07/23 06:11:30;;;;;;;18.95;10.23;;;14.20;99.90;;;;;;5132714;27;20030;-61
2023/07/23 06:13:57;;;;;;;17.15;10.35;;;14.50;99.90;;;;;;5133752;27;20043;-61
2023/07/23 06:16:23;;;;;;;15.23;10.43;;;14.40;99.90;;;;;;5132905;27;20423;-60
2023/07/23 06:18:48;;;;;;;15.88;11.27;;;14.30;99.90;;;;;;5134019;27;20839;-62
2023/07/23 06:21:14;;;;;;;15.07;11.25;;;14.50;99.90;;;;;;5131473;27;20064;-61
2023/07/23 06:23:40;;;;;;;18.63;11.82;;;14.40;99.90;;;;;;5133071;27;20043;-61
2023/07/23 06:26:06;;;;;;;18.65;11.52;;;14.50;99.90;;;;;;5132350;27;20195;-61
2023/07/23 06:28:32;;;;;;;16.83;10.88;;;14.60;99.90;;;;;;5096630;27;20049;-61
2023/07/23 06:30:59;;;;;;;19.30;11.80;;;14.60;99.90;;;;;;5131788;27;20035;-61
2023/07/23 06:33:25;;;;;;;14.63;9.85;;;14.70;99.90;;;;;;5130973;27;20035;-62
2023/07/23 06:35:50;;;;;;;16.42;11.00;;;14.10;99.90;;;;;;5132015;27;20503;-62
2023/07/23 06:38:16;;;;;;;14.98;9.52;;;14.70;99.90;;;;;;5130902;27;20414;-62
2023/07/23 06:40:53;;;;;;;14.75;10.20;;;14.80;99.90;;;;;;5133045;27;20046;-62
2023/07/23 06:43:19;;;;;;;17.30;10.38;;;14.80;99.90;;;;;;5113009;27;20119;-63
2023/07/23 06:45:46;;;;;;;20.80;11.02;;;14.80;99.90;;;;;;5132952;27;20042;-62
2023/07/23 06:48:13;;;;;;;16.90;10.63;;;14.90;99.90;;;;;;5133470;27;20056;-62
2023/07/23 06:50:39;;;;;;;18.02;10.77;;;14.80;99.90;;;;;;5115186;27;20439;-63
2023/07/23 06:53:05;;;;;;;17.67;10.57;;;15.00;99.90;;;;;;5133515;27;20099;-62
2023/07/23 06:55:35;;;;;;;16.65;10.55;;;14.60;99.90;;;;;;5132585;27;20046;-62
2023/07/23 06:58:01;;;;;;;18.73;10.45;;;15.10;99.90;;;;;;5132035;27;20043;-62
2023/07/23 07:00:27;;;;;;;17.70;10.32;;;15.10;99.90;;;;;;5132912;27;20149;-61
2023/07/23 07:02:52;;;;;;;16.27;10.77;;;14.90;99.90;;;;;;5132281;27;21137;-61
2023/07/23 07:05:18;;;;;;;17.88;9.70;;;15.10;99.90;;;;;;5133866;27;20562;-61
2023/07/23 07:07:44;;;;;;;16.73;10.45;;;15.00;99.90;;;;;;5109683;27;20047;-61
2023/07/23 07:10:09;;;;;;;15.30;10.20;;;14.90;99.90;;;;;;5132137;27;20071;-62
2023/07/23 07:12:35;;;;;;;16.58;10.88;;;15.10;99.90;;;;;;5131370;27;20487;-61
2023/07/23 07:15:01;;;;;;;17.70;10.35;;;15.10;99.90;;;;;;5132183;27;20157;-61
2023/07/23 07:17:27;;;;;;;15.52;10.02;;;15.00;99.90;;;;;;5131303;27;20238;-60
2023/07/23 07:19:53;;;;;;;16.35;10.57;;;15.00;99.90;;;;;;5112586;27;20389;-61
2023/07/23 07:22:18;;;;;;;18.60;10.88;;;15.20;99.90;;;;;;5130739;27;20079;-61
2023/07/23 07:24:44;;;;;;;15.32;10.57;;;15.10;99.90;;;;;;5132430;27;20042;-60
2023/07/23 07:27:10;;;;;;;19.88;11.18;;;15.20;99.90;;;;;;5130722;27;20352;-61
2023/07/23 07:29:40;;;;;;;19.15;10.20;;;15.10;99.90;;;;;;5131266;27;20396;-61
2023/07/23 07:32:07;;;;;;;20.77;11.30;;;15.10;99.90;;;;;;5129609;27;20361;-62
2023/07/23 07:34:33;;;;;;;19.63;10.60;;;15.20;99.90;;;;;;5112033;27;20452;-61
2023/07/23 07:36:59;;;;;;;21.02;11.48;;;15.10;99.90;;;;;;5132119;27;20039;-61
2023/07/23 07:39:24;;;;;;;21.30;10.25;;;15.20;99.90;;;;;;5131019;27;20106;-60
2023/07/23 07:41:53;;;;;;;16.65;10.02;;;15.20;99.90;;;;;;5131061;27;20026;-61
2023/07/23 07:44:21;;;;;;;16.45;10.32;;;15.20;99.90;;;;;;5130218;27;20046;-61
2023/07/23 07:46:47;;;;;;;17.45;10.30;;;15.20;99.90;;;;;;5130707;27;20043;-61
2023/07/23 07:49:13;;;;;;;19.35;10.43;;;15.30;99.90;;;;;;5131898;27;20050;-62
2023/07/23 07:51:43;;;;;;;17.98;10.32;;;15.30;99.90;;;;;;5130754;27;20050;-61
2023/07/23 07:54:10;;;;;;;17.75;10.13;;;15.30;99.90;;;;;;5130050;27;20402;-61
2023/07/23 07:56:36;;;;;;;19.98;9.88;;;15.10;99.90;;;;;;5130658;27;20186;-61
2023/07/23 07:59:04;;;;;;;22.77;11.95;;;15.40;99.90;;;;;;5130703;27;20108;-60
2023/07/23 08:01:30;;;;;;;20.67;11.43;;;15.30;99.90;;;;;;5132803;27;20042;-61
2023/07/23 08:03:56;;;;;;;17.55;11.40;;;15.50;99.90;;;;;;5130777;27;20495;-61
2023/07/23 08:06:24;;;;;;;18.20;11.02;;;15.40;99.90;;;;;;5132648;27;20039;-61
2023/07/23 08:08:51;;;;;;;18.88;9.98;;;15.50;99.90;;;;;;5132279;27;20053;-60
2023/07/23 08:11:18;;;;;;;17.08;10.60;;;15.50;99.90;;;;;;5131838;27;20080;-60
2023/07/23 08:13:44;;;;;;;15.55;10.45;;;15.40;99.90;;;;;;5135866;27;20039;-61
2023/07/23 08:16:13;;;;;;;14.88;10.13;;;15.40;99.90;;;;;;5136547;27;20498;-61
2023/07/23 08:18:38;;;;;;;17.38;10.82;;;15.50;99.90;;;;;;5136984;27;20035;-62
2023/07/23 08:21:05;;;;;;;14.88;9.65;;;15.50;99.90;;;;;;5135963;27;20054;-62
2023/07/23 08:23:31;;;;;;;15.65;10.60;;;15.50;99.90;;;;;;5135785;27;20114;-62
2023/07/23 08:25:59;;;;;;;15.63;11.15;;;15.60;99.90;;;;;;5135704;27;20039;-63
2023/07/23 08:28:29;;;;;;;16.40;10.93;;;15.50;99.90;;;;;;5117076;27;20543;-62
2023/07/23 08:30:56;;;;;;;15.73;11.68;;;15.50;99.90;;;;;;5136498;27;20515;-63
2023/07/23 08:33:27;;;;;;;17.48;11.68;;;15.40;99.90;;;;;;5134157;27;20522;-62
2023/07/23 08:35:53;;;;;;;15.38;12.05;;;15.50;99.90;;;;;;5134962;27;20154;-63
2023/07/23 08:38:19;;;;;;;17.88;12.57;;;15.60;99.90;;;;;;5115385;27;20584;-63
2023/07/23 08:40:45;;;;;;;17.05;11.65;;;15.40;99.90;;;;;;5134783;27;20040;-62
2023/07/23 08:43:32;;;;;;;14.65;11.15;;;15.50;99.90;;;;;;5134044;27;20151;-64
2023/07/23 08:46:09;;;;;;;13.15;11.35;;;15.40;99.90;;;;;;5134406;27;20049;-63
2023/07/23 08:49:03;;;;;;;16.00;11.52;;;15.50;99.90;;;;;;5133764;27;20050;-63
2023/07/23 08:51:43;;;;;;;14.57;11.70;;;15.40;99.90;;;;;;5132213;27;20141;-65
2023/07/23 08:54:10;;;;;;;15.15;11.35;;;15.50;99.90;;;;;;5132864;27;20042;-64
2023/07/23 08:56:37;;;;;;;13.07;10.55;;;15.60;99.90;;;;;;5132345;27;20434;-64
2023/07/23 08:59:05;;;;;;;14.05;10.48;;;15.60;99.90;;;;;;5132481;27;20062;-64
2023/07/23 09:01:35;;;;;;;15.98;11.25;;;15.60;99.90;;;;;;5134150;27;20043;-64
2023/07/23 09:04:03;;;;;;;16.08;11.00;;;15.50;99.90;;;;;;5132397;27;20129;-63
2023/07/23 09:06:30;;;;;;;15.73;11.13;;;15.60;99.90;;;;;;5133952;27;20042;-63
2023/07/23 09:09:03;;;;;;;18.08;11.55;;;15.40;99.90;;;;;;5132422;27;20071;-63
2023/07/23 09:11:30;;;;;;;11.70;9.60;;;15.40;99.90;;;;;;5133978;27;20555;-63
2023/07/23 09:14:21;;;;;;;14.20;11.38;;;15.50;99.90;;;;;;5135142;27;20043;-63
2023/07/23 09:16:49;;;;;;;15.48;11.30;;;15.60;99.90;;;;;;5131279;27;20074;-64
2023/07/23 09:19:26;;;;;;;13.15;11.07;;;15.60;99.90;;;;;;5135424;27;20035;-63
2023/07/23 09:21:57;;;;;;;12.45;10.75;;;15.50;99.90;;;;;;5133194;27;20457;-64
2023/07/23 09:24:29;;;;;;;15.40;10.57;;;15.60;99.90;;;;;;5133545;27;20043;-64
2023/07/23 09:26:55;;;;;;;13.48;10.40;;;15.70;99.90;;;;;;5133360;27;20054;-63
2023/07/23 09:29:21;;;;;;;13.27;10.32;;;15.90;99.90;;;;;;5114813;27;20031;-63
2023/07/23 09:31:49;;;;;;;15.13;10.50;;;15.60;99.90;;;;;;5132820;27;20050;-63
2023/07/23 09:34:20;;;;;;;13.65;10.43;;;15.70;99.90;;;;;;5134623;27;20042;-63
2023/07/23 09:36:50;;;;;;;13.97;10.10;;;15.90;99.90;;;;;;5135133;27;20107;-63
2023/07/23 09:39:16;;;;;;;12.55;9.85;;;15.70;99.90;;;;;;5135931;27;20161;-64
2023/07/23 09:41:43;;;;;;;16.48;10.23;;;15.80;99.90;;;;;;5134297;27;20074;-64
2023/07/23 09:44:11;;;;;;;12.18;10.13;;;15.70;99.90;;;;;;5135134;27;20523;-63
2023/07/23 09:46:39;;;;;;;14.93;9.95;;;15.90;99.90;;;;;;5132697;27;20055;-64
2023/07/23 09:49:05;;;;;;;19.40;11.50;;;15.90;99.90;;;;;;5117090;27;20054;-64
2023/07/23 09:51:36;;;;;;;16.15;11.82;;;15.80;99.90;;;;;;5134954;27;20058;-64
2023/07/23 09:54:03;;;;;;;12.93;10.20;;;15.80;99.90;;;;;;5135440;27;20125;-64
2023/07/23 09:56:31;;;;;;;14.95;11.18;;;15.90;99.90;;;;;;5115906;27;20513;-64
2023/07/23 09:58:58;;;;;;;14.32;11.27;;;15.80;99.90;;;;;;5132986;27;20719;-64
2023/07/23 10:01:24;;;;;;;15.02;11.43;;;15.90;99.90;;;;;;5114632;27;20042;-64
2023/07/23 10:03:50;;;;;;;15.70;10.27;;;15.90;99.90;;;;;;5114507;27;20038;-65
2023/07/23 10:06:20;;;;;;;15.57;10.60;;;15.80;99.90;;;;;;5134385;27;20144;-65
2023/07/23 10:08:48;;;;;;;16.15;10.55;;;15.90;99.90;;;;;;5116176;27;20395;-64
2023/07/23 10:11:15;;;;;;;12.70;10.10;;;15.70;99.90;;;;;;5131128;27;20054;-65
2023/07/23 10:13:42;;;;;;;16.02;9.70;;;15.80;99.90;;;;;;5132636;27;20074;-64
2023/07/23 10:16:29;;;;;;;12.88;9.70;;;15.90;99.90;;;;;;5115177;27;20074;-64
2023/07/23 10:18:58;;;;;;;14.52;10.95;;;16.00;99.90;;;;;;5133100;27;20053;-65
2023/07/23 10:21:24;;;;;;;12.60;9.65;;;15.90;99.90;;;;;;5133054;27;20038;-64
2023/07/23 10:23:58;;;;;;;13.70;9.70;;;15.80;99.90;;;;;;5132040;27;20809;-64
2023/07/23 10:26:38;;;;;;;14.35;9.60;;;16.00;99.90;;;;;;5133700;27;20047;-64
2023/07/23 10:29:09;;;;;;;14.60;9.98;;;16.00;99.90;;;;;;5131495;27;20226;-63
2023/07/23 10:31:35;;;;;;;18.05;10.27;;;16.00;99.90;;;;;;5132053;27;20043;-64
2023/07/23 10:34:01;;;;;;;13.90;9.88;;;16.00;99.90;;;;;;5113161;27;20043;-64
2023/07/23 10:36:27;;;;;;;13.38;10.02;;;15.90;99.90;;;;;;5131532;27;20041;-64
2023/07/23 10:39:13;;;;;;;17.45;10.57;;;15.90;99.90;;;;;;5131406;27;20137;-63
2023/07/23 10:41:53;;;;;;;17.33;10.10;;;16.10;99.90;;;;;;5131459;27;20053;-63
2023/07/23 10:44:29;;;;;;;14.23;9.68;;;16.10;99.90;;;;;;5133170;27;20089;-64
2023/07/23 10:46:58;;;;;;;14.23;9.68;;;16.30;99.90;;;;;;5131343;27;20039;-64
2023/07/23 10:49:27;;;;;;;11.98;9.30;;;16.10;99.90;;;;;;5133595;27;20059;-64
2023/07/23 10:51:53;;;;;;;15.80;9.57;;;16.10;99.90;;;;;;5133623;27;20054;-64
2023/07/23 10:54:20;;;;;;;14.65;9.85;;;16.20;99.90;;;;;;5131927;27;20495;-64
2023/07/23 10:56:49;;;;;;;18.63;10.05;;;16.30;99.90;;;;;;5133582;27;20057;-64
2023/07/23 10:59:19;;;;;;;14.63;9.48;;;16.40;99.90;;;;;;5113401;27;20266;-64
2023/07/23 11:01:46;;;;;;;14.50;10.02;;;16.30;99.90;;;;;;5134442;27;20039;-64
2023/07/23 11:04:12;;;;;;;14.70;9.65;;;16.30;99.90;;;;;;5133498;27;20031;-63
2023/07/23 11:06:42;;;;;;;11.50;8.75;;;16.40;99.90;;;;;;5131890;27;20388;-64
2023/07/23 11:09:11;;;;;;;14.50;9.85;;;16.50;99.90;;;;;;5131767;27;20039;-64
2023/07/23 11:11:41;;;;;;;15.18;9.73;;;16.50;99.90;;;;;;5132103;27;20472;-63
2023/07/23 11:14:23;;;;;;;14.02;8.75;;;16.60;99.90;;;;;;5130755;27;20039;-63
2023/07/23 11:16:55;;;;;;;12.50;8.90;;;16.70;99.90;;;;;;5114651;27;20030;-64
2023/07/23 11:19:23;;;;;;;12.95;8.82;;;16.70;99.90;;;;;;5134440;27;20087;-64
2023/07/23 11:21:54;;;;;;;14.93;10.02;;;16.60;99.90;;;;;;5132753;27;20322;-63
2023/07/23 11:24:20;;;;;;;14.93;9.45;;;16.50;99.90;;;;;;5134125;27;20203;-63
2023/07/23 11:26:47;;;;;;;14.05;9.55;;;16.60;99.90;;;;;;5130052;27;20046;-64
2023/07/23 11:29:13;;;;;;;15.38;9.57;;;16.60;99.90;;;;;;5131253;27;20072;-64
2023/07/23 11:31:40;;;;;;;15.93;9.30;;;16.70;99.90;;;;;;5130223;27;20395;-63
2023/07/23 11:34:06;;;;;;;13.75;9.30;;;16.40;99.90;;;;;;5131870;27;20849;-63
2023/07/23 11:36:37;;;;;;;13.77;9.18;;;16.60;99.90;;;;;;5132177;27;20507;-63
2023/07/23 11:39:04;;;;;;;13.25;9.60;;;16.30;99.90;;;;;;5131946;27;20050;-63
2023/07/23 11:41:33;;;;;;;12.23;8.65;;;16.60;99.90;;;;;;5130139;27;20042;-63
2023/07/23 11:44:03;;;;;;;11.52;8.32;;;16.60;99.90;;;;;;5112395;27;20050;-63
2023/07/23 11:46:37;;;;;;;14.07;9.85;;;16.50;99.90;;;;;;5128965;27;20081;-63
2023/07/23 11:49:08;;;;;;;15.25;9.70;;;16.40;99.90;;;;;;5112500;27;20043;-63
2023/07/23 11:51:35;;;;;;;12.02;8.63;;;16.70;99.90;;;;;;5131557;27;20107;-63
2023/07/23 11:54:09;;;;;;;15.35;10.13;;;16.40;99.90;;;;;;5111955;27;20577;-63
2023/07/23 11:56:36;;;;;;;12.88;9.02;;;16.50;99.90;;;;;;5130328;27;20130;-64
2023/07/23 11:59:04;;;;;;;14.77;10.18;;;16.50;99.90;;;;;;5130472;27;20078;-64
2023/07/23 12:01:30;;;;;;;14.98;9.60;;;16.40;99.90;;;;;;5130793;27;20050;-63
2023/07/23 12:03:58;;;;;;;12.13;9.63;;;16.40;99.90;;;;;;5111904;27;20046;-64
2023/07/23 12:06:27;;;;;;;13.50;8.65;;;16.40;99.90;;;;;;5131005;27;20050;-64
2023/07/23 12:08:53;;;;;;;12.07;8.98;;;16.40;99.90;;;;;;5112211;27;20365;-64
2023/07/23 12:11:18;;;;;;;15.60;9.90;;;16.40;99.90;;;;;;5130380;27;20142;-64
2023/07/23 12:13:49;;;;;;;13.05;8.50;;;16.40;99.90;;;;;;5130411;27;20356;-64
2023/07/23 12:16:38;;;;;;;11.27;8.40;;;16.50;99.90;;;;;;5130830;27;20694;-64
2023/07/23 12:19:13;;;;;;;12.05;8.82;;;16.70;99.90;;;;;;5110430;27;20035;-64
2023/07/23 12:21:41;;;;;;;10.40;7.38;;;16.80;99.90;;;;;;5131248;27;20034;-64
2023/07/23 12:24:11;;;;;;;9.93;7.72;;;16.80;99.90;;;;;;5112398;27;20452;-64
2023/07/23 12:26:36;;;;;;;11.43;7.82;;;16.70;99.90;;;;;;5113202;27;20034;-64
2023/07/23 12:29:04;;;;;;;9.80;7.60;;;17.10;99.90;;;;;;5130745;27;24766;-64
2023/07/23 12:31:30;;;;;;;10.13;7.18;;;17.10;99.90;;;;;;5132971;27;20804;-64
2023/07/23 12:33:56;;;;;;;9.48;7.55;;;17.60;99.90;;;;;;5112721;27;20118;-64